WIDD/BTH METAR and TAF weather

Enter ICAO airport designator
Station Type Date Time Source
WIDD METAR 2022/09/26 08:30 UTC NOAA

WIDD 260830Z 14005KT 9999 FEW014 28/24 Q1009 NOSIG


Station Type Date Time Source
WIDD Decoded METAR 2022/09/26 08:30 UTC NOAA

Station name not available
Sep 26, 2022 - 04:30 AM EDT / 2022.09.26 0830 UTC
Wind: from the SE (140 degrees) at 6 MPH (5 KT):0
Visibility: greater than 7 mile(s):0
Sky conditions: mostly clear
Temperature: 82 F (28 C)
Dew Point: 75 F (24 C)
Relative Humidity: 78%
Pressure (altimeter): 29.80 in. Hg (1009 hPa)
ob: WIDD 260830Z 14005KT 9999 FEW014 28/24 Q1009 NOSIG
cycle: 8

Station Type Date Time Source
WIDD TAF 2022/09/26 06:00 UTC NOAA

TAF WIDD 260500Z 2606/2706 20009KT 9999 SCT014=

Example: see airport list